Macau International Airport
VMMC : rendu visible

Aérodrome :











RETROUVEZ-NOUS SUR...

 
LOGIN :

S'inscrire | Disclaimer

   EN    FR    IT 

 









Légende :    VFR   VFR Marginal   IFR   IFR Intensif   IFR Très Intensif
Visi : 
Plafond : 
>= 8 km
>= 3000ft
5 à 8 km
1000 à 3000 ft
1500m à 5 km
500 à 1000 ft
800 à 1500m
200 à 500 ft
< 800m
< 200 ft
Symboles :   Orages  Brouillard  Fortes neiges  Fortes précipitations  Vent > 20 kt







- Altitude de l'aérodrome : 20 ft
- Code IATA : MFM


VMMC - Macau International

DERNIER METAR :
  • 260930Z 09010KT 070V130 8000 FEW012 SCT025 22/20 Q1016 NOSIG

METARs EXPIRÉS :
  • 260900Z 09011KT 050V110 9000 FEW012 SCT025 22/20 Q1016 NOSIG
  • 260830Z 09009KT 030V130 9000 FEW012 SCT025 22/20 Q1016 NOSIG
  • 260800Z 10007KT 040V150 8000 FEW012 SCT025 22/20 Q1016 NOSIG
  • 260730Z 11013KT 8000 FEW025 22/20 Q1016 NOSIG
  • 260700Z 11015KT 7000 FEW025 23/20 Q1016 NOSIG

TAF TAF VMMC
Valide du 26 à 06h jusqu'au 27 à 12h UTC


260500Z 2606/2712 11010KT 7000 FEW012 SCT020
TEMPO 2606/2611 4000 BR
TEMPO 2620/2704 4000 BR
FIR ZGZU / Asie



MET'MAP, la Météo Aéronautique d'un coup d'oeil ! - Copyright ORBIFLY Décembre 2007 - Disclaimer

ORBIFLY MET'MAP TEAM :

Programmation & Développement : Alexandra Zaïnal
Conception & Développement : Baudouin d'Aumeries
Co-Programmation & Développement : Marc-Olivier Méhu
Soutien technique & logistique : Manuel Goepfert

Contact : metmap@orbifly.com




SOURCES & CREDITS :

   NOAA       Earth
Advisory